createdAt,value
2022-10-01T00:01:55.003Z,26.90
2022-10-01T00:06:55.196Z,18.50
2022-10-01T00:11:54.380Z,29.40
2022-10-01T00:16:52.617Z,107.50
2022-10-01T00:21:52.831Z,95.30
2022-10-01T00:26:51.033Z,101.10
2022-10-01T00:31:50.379Z,86.60
2022-10-01T00:36:49.417Z,90.70
2022-10-01T00:41:48.612Z,76.60
2022-10-01T00:46:48.851Z,70.30
2022-10-01T00:51:48.017Z,82.30
2022-10-01T00:56:47.191Z,66.20
2022-10-01T01:01:45.383Z,68.30
2022-10-01T01:06:45.574Z,48.40
2022-10-01T01:11:44.789Z,47.80
2022-10-01T01:16:43.958Z,40.40
2022-10-01T01:21:43.206Z,45.60
2022-10-01T01:26:41.437Z,32.90
2022-10-01T01:31:41.664Z,34.80
2022-10-01T01:36:40.846Z,35.70
2022-10-01T01:41:39.001Z,36.20
2022-10-01T01:46:38.184Z,38.80
2022-10-01T01:51:37.355Z,36.50
2022-10-01T01:56:36.518Z,36.80
2022-10-01T02:01:38.243Z,29.40
2022-10-01T02:06:35.965Z,28.50
2022-10-01T02:11:35.371Z,23.70
2022-10-01T02:16:33.352Z,23.80
2022-10-01T02:21:32.686Z,26.70
2022-10-01T02:26:32.687Z,21.20
2022-10-01T02:31:30.991Z,20.10
2022-10-01T02:36:30.089Z,20.50
2022-10-01T02:41:29.278Z,14.60
2022-10-01T02:46:29.475Z,13.50
2022-10-01T02:51:27.652Z,12.40
2022-10-01T02:56:27.855Z,13.50
2022-10-01T03:01:26.104Z,11.30
2022-10-01T03:06:25.285Z,8.50
2022-10-01T03:11:24.470Z,12.00
2022-10-01T03:16:24.730Z,10.60
2022-10-01T03:21:22.905Z,13.60
2022-10-01T03:26:23.095Z,15.40
2022-10-01T03:31:21.350Z,14.00
2022-10-01T03:36:21.567Z,12.40
2022-10-01T03:41:20.767Z,10.40
2022-10-01T03:46:18.949Z,6.90
2022-10-01T03:51:19.939Z,8.50
2022-10-01T03:56:17.391Z,10.70
2022-10-01T04:01:17.623Z,10.70
2022-10-01T04:06:15.799Z,9.00
2022-10-01T04:11:14.960Z,7.00
2022-10-01T04:16:14.163Z,6.50
2022-10-01T04:21:13.301Z,5.80
2022-10-01T04:26:12.462Z,7.40
2022-10-01T04:31:11.722Z,6.80
2022-10-01T04:36:10.993Z,4.40
2022-10-01T04:41:11.191Z,4.80
2022-10-01T04:46:09.333Z,5.20
2022-10-01T04:51:08.492Z,4.10
2022-10-01T04:56:07.674Z,6.00
2022-10-01T05:01:06.866Z,4.10
2022-10-01T05:06:06.059Z,3.30
2022-10-01T05:11:06.380Z,5.30
2022-10-01T05:16:04.720Z,4.90
2022-10-01T05:21:03.819Z,4.50
2022-10-01T05:26:03.139Z,3.70
2022-10-01T05:31:02.550Z,4.20
2022-10-01T05:36:01.692Z,2.90
2022-10-01T05:41:02.003Z,3.30
2022-10-01T05:46:02.433Z,2.70
2022-10-01T05:50:59.527Z,4.30
2022-10-01T05:55:58.820Z,3.20
2022-10-01T06:00:58.133Z,3.00
2022-10-01T06:05:59.445Z,2.90
2022-10-01T06:10:56.748Z,3.30
2022-10-01T06:15:57.080Z,2.70
2022-10-01T06:20:56.390Z,3.30
2022-10-01T06:25:54.701Z,2.00
2022-10-01T06:30:55.057Z,3.40
2022-10-01T06:35:54.149Z,2.80
2022-10-01T06:40:53.451Z,2.30
2022-10-01T06:45:51.803Z,2.10
2022-10-01T06:50:52.888Z,1.90
2022-10-01T06:55:50.176Z,2.10
2022-10-01T07:00:49.591Z,3.20
2022-10-01T07:05:47.714Z,1.70
2022-10-01T07:10:49.037Z,2.50
2022-10-01T07:15:47.353Z,2.40
2022-10-01T07:20:47.656Z,2.30
2022-10-01T07:25:46.979Z,2.30
2022-10-01T07:30:45.293Z,2.00
2022-10-01T07:35:45.598Z,1.70
2022-10-01T07:40:44.910Z,1.70
2022-10-01T07:45:43.317Z,2.40
2022-10-01T07:50:42.450Z,1.80
2022-10-01T07:55:41.771Z,1.40
2022-10-01T08:00:42.115Z,2.20
2022-10-01T08:05:40.297Z,2.40
2022-10-01T08:10:39.420Z,2.30
2022-10-01T08:15:40.713Z,3.20
2022-10-01T08:20:37.000Z,1.50
2022-10-01T08:25:38.339Z,1.40
2022-10-01T08:30:36.623Z,1.40
2022-10-01T08:35:35.950Z,2.60
2022-10-01T08:40:35.253Z,1.30
2022-10-01T08:45:35.558Z,1.50
2022-10-01T08:50:33.813Z,1.90
2022-10-01T08:55:35.071Z,78.80
2022-10-01T09:00:33.356Z,59.00
2022-10-01T09:05:31.631Z,58.10
2022-10-01T09:10:31.995Z,66.40
2022-10-01T09:15:30.133Z,135.70
2022-10-01T09:20:29.431Z,146.00
2022-10-01T09:25:29.710Z,69.20
2022-10-01T09:30:27.996Z,49.30
2022-10-01T09:35:29.297Z,44.30
2022-10-01T09:40:27.573Z,47.60
2022-10-01T09:45:26.978Z,44.80
2022-10-01T09:50:25.139Z,42.30
2022-10-01T09:55:24.401Z,32.00
2022-10-01T10:00:22.717Z,45.00
2022-10-01T10:05:23.832Z,25.30
2022-10-01T10:10:25.576Z,26.00
2022-10-01T10:15:22.244Z,24.40
2022-10-01T10:20:21.575Z,16.10
2022-10-01T10:25:19.882Z,21.20
2022-10-01T10:30:19.247Z,15.70
2022-10-01T10:35:19.375Z,13.20
2022-10-01T10:40:17.664Z,11.20
2022-10-01T10:45:16.998Z,10.40
2022-10-01T10:50:17.217Z,4.60
2022-10-01T10:55:15.423Z,9.60
2022-10-01T11:00:15.637Z,157.20
2022-10-01T11:05:14.865Z,239.50
2022-10-01T11:10:13.108Z,253.20
2022-10-01T11:15:12.279Z,118.10
2022-10-01T11:20:11.464Z,106.50
2022-10-01T11:25:10.669Z,71.30
2022-10-01T11:30:10.852Z,50.30
2022-10-01T11:35:09.039Z,31.60
2022-10-01T11:40:08.236Z,31.50
2022-10-01T11:45:10.417Z,24.10
2022-10-01T11:50:06.570Z,22.40
2022-10-01T11:55:05.794Z,11.10
2022-10-01T12:00:04.956Z,14.40
2022-10-01T12:05:06.190Z,18.90
2022-10-01T12:10:03.339Z,203.40
2022-10-01T12:15:06.478Z,172.20
2022-10-01T12:20:01.786Z,54.60
2022-10-01T12:25:00.949Z,61.10
2022-10-01T12:30:00.124Z,48.40
2022-10-01T12:34:59.313Z,39.30
2022-10-01T12:39:59.527Z,43.30
2022-10-01T12:44:58.717Z,37.30
2022-10-01T12:49:56.890Z,45.10
2022-10-01T12:54:57.076Z,39.20
2022-10-01T12:59:55.237Z,39.30
2022-10-01T13:04:55.433Z,31.10
2022-10-01T13:09:53.617Z,29.70
2022-10-01T13:14:52.801Z,29.30
2022-10-01T13:19:51.985Z,24.50
2022-10-01T13:24:52.177Z,26.70
2022-10-01T13:29:51.350Z,21.60
2022-10-01T13:34:50.538Z,21.30
2022-10-01T13:39:48.729Z,21.50
2022-10-01T13:44:47.913Z,19.50
2022-10-01T13:49:47.099Z,16.90
2022-10-01T13:54:47.293Z,16.10
2022-10-01T13:59:45.516Z,14.20
2022-10-01T14:04:44.702Z,14.70
2022-10-01T14:09:43.908Z,12.00
2022-10-01T14:14:43.129Z,12.90
2022-10-01T14:19:42.317Z,11.10
2022-10-01T14:24:42.482Z,14.70
2022-10-01T14:29:40.662Z,10.30
2022-10-01T14:34:39.824Z,11.30
2022-10-01T14:39:40.987Z,14.90
2022-10-01T14:44:38.164Z,9.80
2022-10-01T14:49:37.362Z,8.20
2022-10-01T14:54:37.540Z,6.70
2022-10-01T14:59:35.754Z,5.80
2022-10-01T15:04:34.945Z,9.90
2022-10-01T15:09:34.161Z,6.10
2022-10-01T15:14:33.353Z,4.80
2022-10-01T15:19:32.557Z,5.30
2022-10-01T15:24:32.738Z,5.70
2022-10-01T15:29:30.926Z,5.60
2022-10-01T15:34:30.118Z,5.20
2022-10-01T15:39:30.324Z,5.10
2022-10-01T15:44:28.644Z,4.90
2022-10-01T15:49:27.815Z,3.90
2022-10-01T15:54:29.023Z,5.90
2022-10-01T15:59:27.183Z,4.90
2022-10-01T16:04:25.350Z,4.90
2022-10-01T16:09:24.528Z,8.50
2022-10-01T16:14:23.823Z,5.10
2022-10-01T16:19:25.014Z,4.40
2022-10-01T16:24:22.177Z,5.70
2022-10-01T16:29:21.331Z,5.30
2022-10-01T16:34:20.505Z,3.50
2022-10-01T16:39:20.066Z,3.30
2022-10-01T16:44:19.010Z,4.10
2022-10-01T16:49:18.167Z,62.30
2022-10-01T16:54:18.326Z,165.70
2022-10-01T16:59:17.538Z,96.50
2022-10-01T17:04:15.783Z,57.70
2022-10-01T17:09:13.977Z,53.70
2022-10-01T17:14:14.347Z,22.30
2022-10-01T17:19:12.373Z,22.40
2022-10-01T17:24:13.578Z,15.50
2022-10-01T17:29:11.751Z,10.60
2022-10-01T17:34:11.916Z,48.80
2022-10-01T17:39:11.070Z,76.20
2022-10-01T17:44:09.248Z,54.80
2022-10-01T17:49:09.406Z,69.00
2022-10-01T17:54:07.562Z,58.00
2022-10-01T17:59:06.752Z,26.90
2022-10-01T18:04:05.917Z,52.10
2022-10-01T18:09:06.104Z,21.70
2022-10-01T18:14:05.260Z,21.30
2022-10-01T18:29:00.955Z,15.70
2022-10-01T18:34:01.172Z,10.30
2022-10-01T18:39:00.373Z,12.60
2022-10-01T18:44:01.567Z,15.20
2022-10-01T18:48:59.745Z,8.00
2022-10-01T18:53:57.913Z,14.80
2022-10-01T18:58:57.103Z,7.80
2022-10-01T19:03:55.319Z,10.40
2022-10-01T19:08:58.545Z,8.90
2022-10-01T19:13:54.708Z,7.60
2022-10-01T19:18:54.889Z,7.50
2022-10-01T19:23:53.057Z,5.10
2022-10-01T19:28:52.594Z,7.40
2022-10-01T19:33:51.549Z,8.90
2022-10-01T19:38:50.781Z,6.60
2022-10-01T19:43:48.993Z,8.00
2022-10-01T19:48:50.197Z,6.10
2022-10-01T19:53:48.417Z,10.80
2022-10-01T19:58:47.604Z,62.90
2022-10-01T20:03:47.787Z,63.10
2022-10-01T20:08:45.956Z,36.50
2022-10-01T20:13:47.137Z,47.30
2022-10-01T20:18:45.369Z,29.70
2022-10-01T20:23:44.557Z,171.40
2022-10-01T20:28:42.735Z,147.10
2022-10-01T20:33:41.902Z,82.70
2022-10-01T20:38:41.118Z,59.90
2022-10-01T20:43:41.294Z,50.60
2022-10-01T20:48:39.489Z,43.60
2022-10-01T20:53:39.653Z,42.30
2022-10-01T20:58:37.839Z,134.60
2022-10-01T21:03:37.007Z,208.50
2022-10-01T21:08:37.209Z,163.50
2022-10-01T21:13:35.377Z,321.60
2022-10-01T21:18:33.577Z,178.10
2022-10-01T21:23:33.793Z,168.60
2022-10-01T21:28:32.013Z,208.70
2022-10-01T21:33:33.242Z,75.70
2022-10-01T21:38:30.500Z,154.90
2022-10-01T21:43:30.644Z,78.20
2022-10-01T21:48:31.817Z,73.90
2022-10-01T21:53:29.316Z,72.40
2022-10-01T21:58:28.129Z,30.60
2022-10-01T22:03:27.339Z,22.30
2022-10-01T22:08:27.565Z,35.60
2022-10-01T22:13:24.783Z,91.60
2022-10-01T22:18:25.006Z,126.00
2022-10-01T22:23:24.196Z,119.50
2022-10-01T22:28:23.405Z,108.00
2022-10-01T22:33:24.573Z,75.40
2022-10-01T22:38:21.816Z,113.60
2022-10-01T22:43:21.990Z,52.90
2022-10-01T22:48:20.182Z,107.40
2022-10-01T22:53:19.398Z,44.90
2022-10-01T22:58:18.591Z,58.80
2022-10-01T23:03:17.791Z,230.90
2022-10-01T23:08:17.994Z,113.30
2022-10-01T23:13:17.201Z,210.40
2022-10-01T23:18:16.440Z,193.90
2022-10-01T23:23:15.676Z,162.60
2022-10-01T23:28:13.906Z,139.80
2022-10-01T23:33:13.100Z,51.40
2022-10-01T23:38:13.297Z,103.90
2022-10-01T23:43:12.458Z,180.30
2022-10-01T23:48:15.268Z,163.80
2022-10-01T23:53:10.821Z,151.10
2022-10-01T23:58:08.982Z,202.40
